Gartcosh, United Kingdom

1:45 AM BST on October 25, 2014 (GMT +0100)
Cumbernauld | Change Station
CLOSE
Current Station
Personal Weather Station
Location: Cumbernauld, SCOTLAND
Elevation: 279 ft
Nearby Weather Stations

Elev 279 ft 55.93 °N, 4.04 °W | Updated 12 seconds ago

Mostly Cloudy
Mostly Cloudy
49.2 °F
Feels Like 45 °F
N
11.5
Wind Variable Wind from West
Gusts 11.5 mph

Today
High -- | Low -- °F
--% Chance of Precip.
Yesterday
High -- | Low -- °F
Precip. -- in
8:07 AM 5:52 PM
New Moon, 1% visible
Pressure 29.71 in
Visibility 6.2 miles
Clouds Few 2300 ft
Mostly Cloudy 4900 ft
Windchill 45 °F
Dew Point 46 °F
Humidity 89%
Rainfall 0.00 in
Snow Depth Not available.
UV 0.0 out of 12
Pollen Not available.
Air Quality Not available.
Flu Activity Not available.
METAR EGPF 250020Z AUTO 23014KT 9999 FEW023 BKN049 10/07 Q1006

More Conditions Fewer Conditions

Pressure 29.71 in
Visibility 6.2 miles
Clouds Few 2300 ft
Mostly Cloudy 4900 ft
Windchill 45 °F
Dew Point 46 °F
Humidity 89%
Rainfall 0.00 in
Snow Depth Not available.
UV 0.0 out of 12
Pollen Not available.
Air Quality Not available.
Flu Activity Not available.
METAR EGPF 250020Z AUTO 23014KT 9999 FEW023 BKN049 10/07 Q1006

More Conditions Fewer Conditions

10-Day Weather Forecast

Almanac

Astronomy

Oct. 25, 2014 Rise Set
Actual Time 8:07 AM BST 5:52 PM BST
Civil Twilight 7:29 AM BST 6:30 PM BST
Nautical Twilight 6:45 AM BST 7:13 PM BST
Astronomical Twilight 6:03 AM BST 7:56 PM BST
Moon 9:45 AM BST 6:49 PM BST
Length of Visible Light 11h 01m
Length of Day
9h 44m
Tomorrow will be 4m 25s shorter.
New Moon, 1% of the Moon is Illuminated
Oct 24
New Moon
Oct 30
First Quarter
Nov 6
Full
Nov 14
Last Quarter
Nov 22
New

Yesterday's Extremes

Country Highs Country Lows

Community

WunderPhotos

Upload Photos

1,764,735 photos uploaded!

WunderBlogs® & News

Nearby

Snow Depth

Not available.

Earthquake Activity

City Distance Mag. Time & Date
No recent earthquake activity has been reported nearby.
Minimum magnitude displayed is 2.5.

Coastal Water Temperatures

Place Temperature
No Stations Reporting

Nearby Weather Stations